Time;durP1;ratioP1;P1;durP2;ratioP2;P2;SDS_P1;SDS_P2;PMS_P1;PMS_P2;Temp;Humidity;BMP_temperature;BMP_pressure;BME280_temperature;BME280_humidity;BME280_pressure;Samples;Min_cycle;Max_cycle;Signal;HPM_P1;HPM_P2
2022/12/22 03:26:26;;;;;;;0.22;0.22;;;;;;;17.36;54.67;99935.56;4884078;29;20473;-68
2022/12/22 03:28:52;;;;;;;0.30;0.10;;;;;;;17.38;55.05;99936.19;4865828;29;20032;-68
2022/12/22 03:31:17;;;;;;;0.30;0.30;;;;;;;17.40;54.39;99942.25;4866092;29;20508;-68
2022/12/22 03:33:43;;;;;;;0.45;0.25;;;;;;;17.41;54.35;99936.66;4898445;29;20048;-68
2022/12/22 03:36:08;;;;;;;0.45;0.20;;;;;;;17.45;54.28;99932.50;4881206;29;20088;-68
2022/12/22 03:38:34;;;;;;;0.85;0.32;;;;;;;17.47;54.60;99937.75;4865706;29;20463;-69
2022/12/22 03:40:59;;;;;;;0.73;0.10;;;;;;;17.49;54.15;99935.66;4865640;29;20089;-68
2022/12/22 03:46:29;;;;;;;0.47;0.43;;;;;;;17.51;54.60;99930.88;4884297;29;20043;-68
2022/12/22 03:49:11;;;;;;;0.43;0.30;;;;;;;17.47;54.39;99922.31;4867768;29;20040;-65
2022/12/22 03:51:47;;;;;;;1.80;0.40;;;;;;;17.44;54.37;99919.16;4869938;29;20040;-66
2022/12/22 03:54:14;;;;;;;0.63;0.30;;;;;;;17.39;54.79;99917.03;4869365;29;20096;-65
2022/12/22 03:56:40;;;;;;;0.57;0.20;;;;;;;17.36;54.55;99913.91;4869083;29;20581;-66
2022/12/22 03:59:06;;;;;;;0.68;0.30;;;;;;;17.33;54.24;99914.28;4885008;29;20044;-66
2022/12/22 04:01:32;;;;;;;0.88;0.35;;;;;;;17.28;54.71;99911.34;4884068;29;20059;-67
2022/12/22 04:03:58;;;;;;;0.22;0.22;;;;;;;17.25;54.55;99911.72;4885454;29;20080;-67
2022/12/22 04:06:23;;;;;;;1.13;0.30;;;;;;;17.23;54.89;99909.19;4868781;29;20048;-65
2022/12/22 04:08:49;;;;;;;1.33;0.30;;;;;;;17.23;54.37;99908.34;4869067;29;20535;-66
2022/12/22 04:13:59;;;;;;;0.93;0.20;;;;;;;17.23;54.48;99900.22;4887128;29;20044;-65
2022/12/22 04:16:25;;;;;;;3.33;0.30;;;;;;;17.22;54.70;99890.44;4884554;29;20021;-67
2022/12/22 04:18:50;;;;;;;2.88;0.55;;;;;;;17.20;54.63;99892.50;4884579;29;20035;-67
2022/12/22 04:21:16;;;;;;;0.60;0.30;;;;;;;17.23;54.71;99897.53;4884542;29;20045;-67
2022/12/22 04:23:41;;;;;;;0.90;0.20;;;;;;;17.24;54.53;99897.34;4884825;29;20414;-67
2022/12/22 04:26:07;;;;;;;0.30;0.22;;;;;;;17.22;54.59;99885.03;4868898;29;20124;-68
2022/12/22 04:28:32;;;;;;;1.20;0.40;;;;;;;17.24;54.47;99888.38;4868638;29;20107;-66
2022/12/22 04:30:58;;;;;;;0.47;0.47;;;;;;;17.21;55.19;99883.34;4853885;29;20028;-67
2022/12/22 04:33:23;;;;;;;0.50;0.50;;;;;;;17.21;54.48;99897.72;4868929;29;20496;-67
2022/12/22 04:35:49;;;;;;;0.73;0.40;;;;;;;17.21;55.01;99888.78;4884328;29;20556;-68
2022/12/22 04:38:14;;;;;;;1.02;0.60;;;;;;;17.20;54.58;99897.91;4883952;29;20524;-68
2022/12/22 04:40:40;;;;;;;1.33;0.50;;;;;;;17.20;54.63;99900.63;4883883;29;20043;-68
2022/12/22 04:43:05;;;;;;;0.52;0.50;;;;;;;17.17;54.46;99899.13;4884244;29;20496;-68
2022/12/22 04:45:31;;;;;;;2.67;0.70;;;;;;;17.19;54.75;99907.09;4868478;29;20040;-68
2022/12/22 04:47:56;;;;;;;3.25;0.80;;;;;;;17.17;54.68;99906.44;4883060;29;20041;-67
2022/12/22 04:50:21;;;;;;;1.42;0.63;;;;;;;17.18;54.23;99902.69;4868420;29;20040;-67
2022/12/22 04:52:47;;;;;;;1.95;0.98;;;;;;;17.17;54.78;99904.53;4866936;29;20056;-67
2022/12/22 04:55:12;;;;;;;2.88;1.30;;;;;;;17.15;54.17;99905.78;4868474;29;20032;-65
2022/12/22 04:57:37;;;;;;;1.98;1.67;;;;;;;17.12;54.78;99906.16;4852252;29;20033;-65
2022/12/22 05:00:06;;;;;;;2.55;1.35;;;;;;;17.14;54.77;99914.94;4867865;29;20047;-66
2022/12/22 05:02:31;;;;;;;3.17;1.23;;;;;;;17.08;54.74;99903.03;4882891;29;20028;-67
2022/12/22 05:04:58;;;;;;;1.88;1.70;;;;;;;17.12;53.88;99911.56;4868019;29;20047;-66
2022/12/22 05:07:23;;;;;;;2.72;1.70;;;;;;;17.09;54.52;99904.69;4882617;29;20060;-64
2022/12/22 05:09:48;;;;;;;2.05;1.60;;;;;;;17.08;54.43;99904.91;4900390;29;20040;-66
2022/12/22 05:14:58;;;;;;;1.42;1.30;;;;;;;17.04;54.80;99903.59;4885634;29;20047;-64
2022/12/22 05:17:23;;;;;;;2.53;1.40;;;;;;;16.96;55.08;99890.19;4882956;29;20036;-64
2022/12/22 05:19:48;;;;;;;2.08;1.42;;;;;;;17.01;55.26;99898.56;4882862;29;20036;-66
2022/12/22 05:22:14;;;;;;;1.52;1.30;;;;;;;16.97;54.48;99886.47;4852133;29;20052;-69
2022/12/22 05:24:39;;;;;;;3.20;1.60;;;;;;;16.98;54.25;99891.69;4883411;29;20397;-67
2022/12/22 05:27:05;;;;;;;32.72;3.17;;;;;;;16.97;53.88;99897.28;4899571;29;20107;-68
2022/12/22 05:29:30;;;;;;;8.90;1.60;;;;;;;16.96;53.89;99896.44;4867574;29;20400;-68
2022/12/22 05:31:56;;;;;;;8.00;1.95;;;;;;;16.96;54.72;99898.31;4882576;29;20068;-69
2022/12/22 05:34:21;;;;;;;2.45;1.38;;;;;;;16.95;55.22;99902.88;4851960;29;20029;-68
2022/12/22 05:36:47;;;;;;;1.45;1.33;;;;;;;16.93;55.56;99907.66;4867994;29;20052;-67
2022/12/22 05:39:12;;;;;;;1.73;1.40;;;;;;;16.92;54.39;99911.38;4883570;29;20516;-67
2022/12/22 05:41:37;;;;;;;1.88;1.50;;;;;;;16.91;54.58;99914.28;4899842;29;20040;-66
2022/12/22 05:44:03;;;;;;;2.55;1.85;;;;;;;16.89;54.10;99907.19;4867147;29;20060;-66
2022/12/22 05:46:28;;;;;;;3.97;1.70;;;;;;;16.89;54.84;99912.59;4867163;29;20037;-66
2022/12/22 05:48:54;;;;;;;2.60;2.30;;;;;;;16.91;53.97;99914.28;4899426;29;20131;-66
2022/12/22 05:51:19;;;;;;;2.78;1.95;;;;;;;16.92;54.67;99915.97;4867094;29;20040;-66
2022/12/22 05:53:44;;;;;;;3.88;2.28;;;;;;;16.94;54.50;99911.19;4851517;29;20041;-66
2022/12/22 05:56:10;;;;;;;2.97;1.92;;;;;;;16.93;54.27;99910.34;4866483;29;20582;-66
2022/12/22 05:58:38;;;;;;;3.45;1.92;;;;;;;16.94;55.65;99925.56;4882325;29;20040;-65
2022/12/22 06:01:04;;;;;;;3.50;2.83;;;;;;;16.93;55.35;99928.47;4867338;29;20096;-66
2022/12/22 06:03:30;;;;;;;3.83;2.20;;;;;;;16.92;54.75;99929.50;4867055;29;20037;-65
2022/12/22 06:05:55;;;;;;;5.05;3.08;;;;;;;16.94;55.02;99930.13;4866600;29;20056;-65
2022/12/22 06:08:22;;;;;;;4.00;2.38;;;;;;;16.92;55.18;99938.44;4881737;29;20040;-65
2022/12/22 06:10:48;;;;;;;3.85;2.30;;;;;;;16.93;55.01;99934.72;4882363;29;20067;-66
2022/12/22 06:13:14;;;;;;;6.68;2.90;;;;;;;16.92;54.64;99935.72;4866484;29;20489;-65
2022/12/22 06:15:40;;;;;;;5.80;3.00;;;;;;;16.92;55.13;99943.03;4882035;29;20048;-65
2022/12/22 06:18:05;;;;;;;2.53;1.77;;;;;;;16.93;55.60;99947.38;4882033;29;20036;-66
2022/12/22 06:20:31;;;;;;;4.05;2.40;;;;;;;16.95;55.08;99943.47;4880469;29;20494;-65
2022/12/22 06:22:56;;;;;;;3.22;1.88;;;;;;;16.93;55.88;99944.69;4881690;29;20037;-66
2022/12/22 06:25:21;;;;;;;4.45;1.67;;;;;;;16.97;54.93;99948.69;4881870;29;20036;-65
2022/12/22 06:27:47;;;;;;;5.15;1.83;;;;;;;16.97;54.67;99946.84;4866701;29;20029;-66
2022/12/22 06:30:14;;;;;;;2.17;1.75;;;;;;;17.02;55.32;99962.47;4866368;29;20047;-65
2022/12/22 06:32:39;;;;;;;3.00;1.67;;;;;;;17.01;55.31;99967.06;4866233;29;20029;-65
2022/12/22 06:35:07;;;;;;;2.38;1.42;;;;;;;17.02;55.75;99974.16;4866141;29;20035;-65
2022/12/22 06:37:33;;;;;;;2.53;1.60;;;;;;;17.03;55.50;99988.53;4866455;29;20507;-65
2022/12/22 06:39:58;;;;;;;1.75;1.10;;;;;;;17.07;56.02;99995.22;4898933;29;20124;-65
2022/12/22 06:45:08;;;;;;;1.88;1.63;;;;;;;17.08;54.89;100007.72;4898262;29;20096;-66
2022/12/22 06:47:33;;;;;;;2.47;1.40;;;;;;;17.04;55.24;100011.81;4881065;29;20048;-65
2022/12/22 06:49:59;;;;;;;2.50;1.77;;;;;;;17.06;55.73;100028.69;4881525;29;20028;-65
2022/12/22 06:52:24;;;;;;;3.53;2.40;;;;;;;17.03;54.84;100032.63;4865834;29;20517;-65
2022/12/22 06:54:49;;;;;;;2.22;2.00;;;;;;;17.03;55.34;100043.44;4866240;29;20028;-65
2022/12/22 06:57:15;;;;;;;4.03;2.00;;;;;;;17.05;55.19;100052.25;4865745;29;20501;-65
2022/12/22 06:59:40;;;;;;;3.17;2.22;;;;;;;17.07;55.58;100052.03;4881569;29;20068;-65
2022/12/22 07:02:06;;;;;;;2.90;1.70;;;;;;;17.06;55.00;100061.19;4881341;29;20047;-65
2022/12/22 07:04:31;;;;;;;4.45;2.22;;;;;;;17.04;55.50;100060.53;4881798;29;20028;-65
2022/12/22 07:06:57;;;;;;;4.45;2.70;;;;;;;17.04;55.03;100065.94;4898802;29;20398;-66
2022/12/22 07:09:22;;;;;;;4.55;2.35;;;;;;;17.05;55.73;100075.75;4866182;29;20116;-67
2022/12/22 07:11:47;;;;;;;4.57;2.80;;;;;;;17.09;54.99;100077.88;4882183;29;20040;-65
2022/12/22 07:14:14;;;;;;;5.68;2.45;;;;;;;17.13;55.40;100083.75;4866564;29;20043;-65
2022/12/22 07:16:39;;;;;;;4.60;2.50;;;;;;;17.16;54.93;100086.09;4851214;29;20366;-65
2022/12/22 07:19:05;;;;;;;5.85;3.20;;;;;;;17.18;54.55;100089.44;4881525;29;20055;-65
2022/12/22 07:21:30;;;;;;;5.38;3.17;;;;;;;17.18;55.53;100105.69;4881129;29;20040;-65
2022/12/22 07:23:55;;;;;;;7.35;3.78;;;;;;;17.18;54.22;100100.25;4881339;29;20052;-66
2022/12/22 07:26:21;;;;;;;7.82;3.63;;;;;;;17.15;54.84;100111.47;4853439;29;20037;-67
2022/12/22 07:28:47;;;;;;;8.35;4.28;;;;;;;17.16;55.36;100113.16;4885046;29;20441;-67
2022/12/22 07:31:14;;;;;;;6.53;3.95;;;;;;;17.15;55.37;100116.88;4870400;29;20490;-65
2022/12/22 07:33:40;;;;;;;7.80;4.20;;;;;;;17.17;54.88;100114.84;4869890;29;20516;-65
2022/12/22 07:36:16;;;;;;;7.93;4.22;;;;;;;17.19;55.50;100126.31;4869511;29;20040;-66
2022/12/22 07:38:44;;;;;;;10.10;5.30;;;;;;;17.18;54.85;100122.75;4869503;29;20036;-66
2022/12/22 07:43:57;;;;;;;7.07;4.07;;;;;;;17.24;54.76;100137.41;4887387;29;20035;-66
2022/12/22 07:46:24;;;;;;;8.30;4.70;;;;;;;17.25;55.13;100139.91;4884755;29;20032;-66
2022/12/22 07:51:34;;;;;;;11.27;4.85;;;;;;;17.30;54.77;100164.56;4887387;29;20059;-66
2022/12/22 07:54:00;;;;;;;9.13;5.18;;;;;;;17.31;55.39;100176.22;4869265;29;20047;-66
2022/12/22 07:56:25;;;;;;;8.98;5.03;;;;;;;17.30;54.67;100171.84;4869409;29;20037;-65
2022/12/22 07:58:51;;;;;;;9.10;4.85;;;;;;;17.32;55.64;100186.03;4869103;29;20036;-66
2022/12/22 08:01:16;;;;;;;8.30;4.80;;;;;;;17.35;55.07;100188.34;4885052;29;20036;-66
2022/12/22 08:03:41;;;;;;;12.85;5.20;;;;;;;17.31;54.64;100187.03;4885653;29;20025;-67
2022/12/22 08:06:07;;;;;;;12.90;5.60;;;;;;;17.38;54.52;100207.78;4884920;29;20055;-64
2022/12/22 08:08:34;;;;;;;10.43;5.65;;;;;;;17.35;54.92;100215.44;4884314;29;20037;-64
2022/12/22 08:11:03;;;;;;;12.63;5.20;;;;;;;17.34;55.45;100213.75;4883599;29;20044;-65
2022/12/22 08:13:28;;;;;;;8.32;4.45;;;;;;;17.30;54.81;100215.16;4868691;29;20024;-65
2022/12/22 08:15:54;;;;;;;10.18;5.53;;;;;;;17.33;54.12;100222.91;4884588;29;20405;-65
2022/12/22 08:18:19;;;;;;;9.68;5.03;;;;;;;17.30;55.34;100223.28;4884162;29;20116;-65
2022/12/22 08:20:51;;;;;;;11.65;5.70;;;;;;;17.29;54.49;100224.28;4868914;29;20055;-66
2022/12/22 08:23:17;;;;;;;10.82;5.40;;;;;;;17.29;54.36;100222.44;4884409;29;20044;-65
2022/12/22 08:25:43;;;;;;;11.20;4.88;;;;;;;17.31;55.07;100239.31;4869218;29;20130;-65
2022/12/22 08:28:08;;;;;;;12.85;5.47;;;;;;;17.32;54.34;100249.13;4869158;29;20048;-65
2022/12/22 08:30:34;;;;;;;9.90;4.40;;;;;;;17.36;54.95;100257.75;4884515;29;20036;-65
2022/12/22 08:32:59;;;;;;;11.00;5.03;;;;;;;17.38;54.82;100258.38;4868777;29;20043;-65
2022/12/22 08:35:25;;;;;;;9.48;5.07;;;;;;;17.45;54.64;100275.53;4884598;29;20037;-66
2022/12/22 08:37:51;;;;;;;12.35;5.57;;;;;;;17.45;54.16;100287.22;4882955;29;20033;-65
2022/12/22 08:40:20;;;;;;;12.23;5.25;;;;;;;17.43;54.63;100281.16;4868491;29;20041;-65
2022/12/22 08:42:46;;;;;;;11.55;4.85;;;;;;;17.47;53.90;100273.50;4884412;29;20053;-65
2022/12/22 08:45:12;;;;;;;13.68;6.15;;;;;;;17.49;54.57;100276.88;4867679;29;20115;-65
2022/12/22 08:47:38;;;;;;;16.15;6.05;;;;;;;17.60;54.08;100289.13;4883573;29;20040;-65
2022/12/22 08:50:04;;;;;;;13.65;5.68;;;;;;;17.65;53.67;100287.53;4868116;29;20065;-65
2022/12/22 08:52:30;;;;;;;13.77;5.70;;;;;;;17.69;53.98;100283.44;4900697;29;20052;-65
2022/12/22 08:54:55;;;;;;;15.27;6.25;;;;;;;17.74;53.62;100291.81;4868476;29;20075;-64
2022/12/22 08:57:21;;;;;;;13.88;6.00;;;;;;;17.77;53.81;100318.53;4868062;29;20033;-64
2022/12/22 08:59:47;;;;;;;10.43;5.13;;;;;;;17.79;54.43;100321.91;4883063;29;20041;-64
2022/12/22 09:02:12;;;;;;;13.35;5.80;;;;;;;17.81;53.97;100321.72;4883355;29;20033;-64
2022/12/22 09:04:38;;;;;;;13.90;5.55;;;;;;;17.80;53.87;100322.75;4883657;29;20044;-64
2022/12/22 09:07:03;;;;;;;13.30;5.65;;;;;;;17.81;54.23;100327.16;4882927;29;20624;-64
2022/12/22 09:09:33;;;;;;;14.00;6.85;;;;;;;17.80;54.55;100329.00;4883226;29;20041;-64
2022/12/22 09:11:59;;;;;;;13.00;6.25;;;;;;;17.79;53.61;100349.00;4883158;29;20041;-65
2022/12/22 09:14:24;;;;;;;12.23;5.57;;;;;;;17.76;53.99;100360.19;4867443;29;20103;-64
2022/12/22 09:16:50;;;;;;;17.08;6.63;;;;;;;17.76;54.65;100360.19;4867492;29;20493;-65
2022/12/22 09:19:16;;;;;;;15.65;6.78;;;;;;;17.73;53.79;100360.56;4883215;29;20067;-64
2022/12/22 09:21:41;;;;;;;15.57;6.25;;;;;;;17.66;54.02;100373.19;4883623;29;20024;-64
2022/12/22 09:24:07;;;;;;;16.20;6.78;;;;;;;17.63;53.49;100378.13;4882995;29;20037;-64
2022/12/22 09:26:33;;;;;;;19.45;8.57;;;;;;;17.56;54.32;100380.72;4883350;29;20037;-65
2022/12/22 09:28:58;;;;;;;21.50;8.30;;;;;;;17.56;53.70;100385.34;4867438;29;20052;-64
2022/12/22 09:31:25;;;;;;;15.68;6.80;;;;;;;17.53;54.06;100381.09;4867232;29;20040;-64
2022/12/22 09:33:51;;;;;;;17.17;6.82;;;;;;;17.54;53.72;100379.25;4883356;29;20029;-65
2022/12/22 09:36:18;;;;;;;14.40;6.75;;;;;;;17.57;54.31;100387.00;4867359;29;20667;-65
2022/12/22 09:38:44;;;;;;;17.02;6.75;;;;;;;17.66;53.79;100392.16;4881749;29;20041;-65
2022/12/22 09:41:33;;;;;;;23.05;7.88;;;;;;;17.75;53.52;100393.75;4882829;29;20128;-66
2022/12/22 09:44:28;;;;;;;19.42;7.85;;;;;;;17.90;52.95;100397.31;4882201;29;20051;-65
2022/12/22 09:46:56;;;;;;;18.15;8.00;;;;;;;17.94;53.80;100406.75;4893052;29;20037;-66
2022/12/22 09:49:22;;;;;;;16.15;7.47;;;;;;;18.11;53.15;100401.13;4882514;29;20051;-65
2022/12/22 09:51:52;;;;;;;17.00;7.60;;;;;;;18.19;52.87;100409.16;4867138;29;20037;-66
2022/12/22 09:54:18;;;;;;;20.65;7.57;;;;;;;18.30;53.09;100428.50;4883082;29;20593;-64
2022/12/22 09:56:43;;;;;;;17.73;7.93;;;;;;;18.57;52.27;100435.97;4867593;29;20100;-65
2022/12/22 09:59:14;;;;;;;18.67;8.18;;;;;;;18.74;52.01;100436.56;4867296;29;20047;-63
2022/12/22 10:02:17;;;;;;;20.10;8.13;;;;;;;19.00;52.23;100434.16;4866766;29;20548;-65
2022/12/22 10:04:59;;;;;;;15.02;7.32;;;;;;;19.29;52.06;100445.94;4882126;29;20037;-64
2022/12/22 10:07:33;;;;;;;18.33;7.60;;;;;;;19.19;52.34;100438.09;4866549;29;20052;-67
2022/12/22 10:10:23;;;;;;;13.73;5.78;;;;;;;18.99;52.20;100434.34;4899366;29;20040;-64
2022/12/22 10:12:49;;;;;;;13.13;6.00;;;;;;;18.89;52.59;100433.81;4882932;29;20470;-64
2022/12/22 10:15:14;;;;;;;15.30;7.50;;;;;;;18.86;52.36;100435.06;4883029;29;20135;-64
2022/12/22 10:17:40;;;;;;;15.52;7.28;;;;;;;18.83;51.77;100440.88;4866356;29;20033;-64
2022/12/22 10:20:25;;;;;;;10.68;4.97;;;;;;;19.29;51.05;100435.06;4899009;29;20043;-65
2022/12/22 10:22:53;;;;;;;13.23;5.35;;;;;;;19.82;50.63;100436.38;4882098;29;20450;-64
2022/12/22 10:25:27;;;;;;;11.07;5.40;;;;;;;20.18;49.68;100437.81;4882058;29;20032;-64
2022/12/22 10:27:55;;;;;;;10.00;5.35;;;;;;;20.55;49.21;100441.16;4882047;29;20017;-78
2022/12/22 10:30:30;;;;;;;13.70;5.90;;;;;;;21.01;48.62;100439.44;4881303;29;20446;-64
2022/12/22 10:33:12;;;;;;;12.13;6.22;;;;;;;21.45;48.69;100442.47;4866152;29;20498;-64
2022/12/22 10:35:54;;;;;;;12.85;5.90;;;;;;;21.78;48.14;100438.88;4865863;29;20044;-64
2022/12/22 10:38:26;;;;;;;11.90;5.57;;;;;;;22.04;48.55;100438.88;4865834;29;20028;-64
2022/12/22 10:40:57;;;;;;;7.40;4.45;;;;;;;22.14;47.77;100449.38;4881311;29;20043;-65
2022/12/22 10:43:26;;;;;;;11.80;5.25;;;;;;;22.27;47.83;100458.34;4881493;29;20123;-64
2022/12/22 10:45:53;;;;;;;8.85;4.53;;;;;;;22.60;47.63;100450.88;4881347;29;20501;-65
2022/12/22 10:48:27;;;;;;;10.63;4.53;;;;;;;22.96;47.24;100454.94;4865914;29;20035;-65
2022/12/22 10:50:53;;;;;;;9.20;4.63;;;;;;;23.23;46.26;100463.84;4865634;29;20032;-69
2022/12/22 10:53:18;;;;;;;7.25;3.97;;;;;;;23.10;47.18;100464.72;4881442;29;20378;-65
2022/12/22 10:55:44;;;;;;;7.35;3.35;;;;;;;22.59;47.46;100467.47;4865668;29;20071;-66
2022/12/22 10:58:09;;;;;;;9.70;4.57;;;;;;;22.64;46.59;100478.63;4881352;29;20493;-67
2022/12/22 11:00:36;;;;;;;7.25;3.63;;;;;;;23.00;45.54;100475.31;4897643;29;20075;-68
2022/12/22 11:03:04;;;;;;;9.85;4.18;;;;;;;23.08;45.25;100477.78;4866388;29;20024;-67
2022/12/22 11:05:31;;;;;;;9.60;4.85;;;;;;;23.08;46.29;100477.78;4881425;29;20044;-67
2022/12/22 11:08:00;;;;;;;9.80;3.88;;;;;;;23.02;45.96;100478.66;4865713;29;20045;-67
2022/12/22 11:10:34;;;;;;;11.38;5.47;;;;;;;22.81;45.21;100488.00;4865964;29;20053;-67
2022/12/22 11:13:20;;;;;;;11.45;5.03;;;;;;;22.70;46.34;100501.53;4880657;29;20068;-67
2022/12/22 11:16:01;;;;;;;10.15;4.70;;;;;;;22.78;45.27;100498.53;4881250;29;20508;-66
2022/12/22 11:18:41;;;;;;;8.43;5.53;;;;;;;22.92;45.85;100498.25;4866216;29;20056;-68
2022/12/22 11:21:09;;;;;;;11.32;5.18;;;;;;;23.02;44.94;100492.31;4881401;29;20048;-71
2022/12/22 11:24:12;;;;;;;10.05;5.47;;;;;;;23.06;45.59;100502.59;4881210;29;20085;-67
2022/12/22 11:27:16;;;;;;;11.75;5.72;;;;;;;23.14;45.02;100498.78;4865527;29;20096;-66
2022/12/22 11:29:44;;;;;;;12.13;6.05;;;;;;;23.28;44.39;100500.38;4821964;29;20129;-67
2022/12/22 11:32:24;;;;;;;9.60;4.90;;;;;;;23.37;44.98;100496.31;4806825;29;20042;-69
2022/12/22 11:35:05;;;;;;;10.00;4.68;;;;;;;23.47;44.92;100501.34;4865936;29;20043;-65
2022/12/22 11:37:40;;;;;;;9.32;5.57;;;;;;;23.53;43.79;100481.31;4897628;29;20036;-66
2022/12/22 11:40:23;;;;;;;10.70;4.88;;;;;;;23.52;44.25;100479.63;4865588;29;20045;-66
2022/12/22 11:43:26;;;;;;;13.55;5.30;;;;;;;23.38;43.74;100489.81;4897685;29;20055;-66
2022/12/22 11:46:14;;;;;;;9.88;5.53;;;;;;;23.24;44.29;100488.19;4880977;29;20048;-66
2022/12/22 11:49:04;;;;;;;10.40;4.72;;;;;;;22.82;44.98;100494.31;4880774;29;20056;-66
2022/12/22 11:51:41;;;;;;;8.23;4.43;;;;;;;22.87;44.94;100491.75;4881637;29;20104;-66
2022/12/22 11:54:41;;;;;;;10.35;4.53;;;;;;;22.58;44.19;100483.00;4898121;29;20056;-65
2022/12/22 11:57:21;;;;;;;9.38;4.28;;;;;;;22.12;44.69;100476.84;4897978;29;20029;-65
2022/12/22 11:59:55;;;;;;;14.85;5.75;;;;;;;21.77;45.69;100481.69;4881082;29;20064;-65
2022/12/22 12:02:39;;;;;;;14.05;4.97;;;;;;;21.51;45.50;100480.84;4897833;29;20036;-65
2022/12/22 12:05:29;;;;;;;9.32;4.85;;;;;;;21.23;45.40;100483.75;4880713;29;20033;-65
2022/12/22 12:08:24;;;;;;;14.45;5.25;;;;;;;21.03;45.66;100480.09;4880639;29;20037;-67
2022/12/22 12:11:17;;;;;;;10.25;5.22;;;;;;;20.80;45.81;100478.56;4868586;29;20040;-65
2022/12/22 12:14:10;;;;;;;8.90;4.80;;;;;;;20.59;45.98;100470.53;4883996;29;20037;-65
2022/12/22 12:16:54;;;;;;;;;;;;;;;20.41;46.51;100474.84;4884831;29;20037;-64
2022/12/22 12:19:44;;;;;;;12.90;5.05;;;;;;;20.20;46.78;100479.28;4884506;29;19915;-65
2022/12/22 12:22:31;;;;;;;12.88;5.40;;;;;;;20.12;46.64;100471.28;4855333;29;20115;-65
2022/12/22 12:25:00;;;;;;;10.93;5.57;;;;;;;20.02;46.72;100472.66;4867485;29;20073;-64
2022/12/22 12:27:47;;;;;;;11.82;4.72;;;;;;;19.95;46.62;100472.63;4884955;29;20481;-64
2022/12/22 12:30:17;;;;;;;12.35;5.85;;;;;;;19.85;46.60;100469.41;4880326;29;20057;-64
2022/12/22 12:32:58;;;;;;;12.10;5.38;;;;;;;19.82;46.35;100469.81;4850413;29;20126;-64
2022/12/22 12:35:46;;;;;;;9.40;5.28;;;;;;;19.74;46.88;100464.50;4882145;29;20044;-65
2022/12/22 12:38:47;;;;;;;13.35;5.65;;;;;;;19.63;46.81;100465.06;4849936;29;20053;-64
2022/12/22 12:41:24;;;;;;;10.55;4.78;;;;;;;19.56;47.29;100465.03;4874719;29;20067;-64
2022/12/22 12:43:51;;;;;;;12.52;4.78;;;;;;;19.51;46.93;100470.22;4883425;29;20029;-65
2022/12/22 12:46:54;;;;;;;11.70;4.88;;;;;;;19.45;47.11;100465.56;4868267;29;20045;-65
2022/12/22 12:49:37;;;;;;;9.73;5.25;;;;;;;19.35;47.45;100461.41;4868512;29;20509;-65
2022/12/22 12:52:10;;;;;;;6.53;4.25;;;;;;;19.28;47.17;100463.25;4900507;29;20040;-65
2022/12/22 12:54:36;;;;;;;6.65;3.55;;;;;;;19.37;46.62;100462.09;4868175;29;20516;-65
2022/12/22 12:57:30;;;;;;;7.03;3.45;;;;;;;19.37;47.15;100464.81;4884268;29;20103;-65
2022/12/22 12:59:56;;;;;;;;;;;;;;;19.31;47.01;100460.16;4884059;29;20036;-64
2022/12/22 13:02:36;;;;;;;3.33;1.80;;;;;;;19.21;47.05;100465.06;4883489;29;20311;-64
2022/12/22 13:05:11;;;;;;;2.83;1.48;;;;;;;19.12;46.84;100462.47;4883311;29;20037;-64
2022/12/22 13:08:04;;;;;;;3.78;1.80;;;;;;;19.06;46.83;100476.00;4899897;29;20104;-64
2022/12/22 13:10:30;;;;;;;1.33;1.08;;;;;;;18.97;47.13;100464.41;4883477;29;20104;-64
2022/12/22 13:12:57;;;;;;;2.65;1.63;;;;;;;18.95;47.51;100461.06;4883291;29;20132;-64
2022/12/22 13:15:28;;;;;;;2.30;1.27;;;;;;;18.98;47.28;100471.50;4868332;29;20549;-66
2022/12/22 13:17:54;;;;;;;2.47;1.40;;;;;;;18.96;46.95;100467.28;4899948;29;20187;-64
2022/12/22 13:20:37;;;;;;;5.07;2.95;;;;;;;18.91;46.95;100473.31;4882935;29;20094;-63
2022/12/22 13:23:10;;;;;;;2.05;1.70;;;;;;;18.97;46.74;100469.84;4867352;29;20076;-65
2022/12/22 13:25:44;;;;;;;2.97;1.60;;;;;;;19.04;46.85;100469.88;4882746;29;20509;-64
2022/12/22 13:28:17;;;;;;;4.28;1.63;;;;;;;19.09;46.98;100476.44;4882967;29;20045;-65
2022/12/22 13:30:51;;;;;;;4.80;1.65;;;;;;;19.25;46.64;100463.63;4882987;29;20029;-64
2022/12/22 13:33:19;;;;;;;2.35;1.55;;;;;;;19.59;46.34;100459.19;4883160;29;20535;-65
2022/12/22 13:35:46;;;;;;;2.45;1.70;;;;;;;19.81;47.43;100465.41;4867294;29;20055;-64
2022/12/22 13:38:35;;;;;;;4.38;1.55;;;;;;;20.38;47.54;100454.28;4867180;29;20064;-65
2022/12/22 13:41:20;;;;;;;2.47;1.75;;;;;;;20.99;47.36;100446.16;4883264;29;20048;-64
2022/12/22 13:43:52;;;;;;;2.58;1.67;;;;;;;21.41;46.66;100446.66;4861216;29;20048;-64
2022/12/22 13:46:17;;;;;;;3.55;1.80;;;;;;;21.72;46.95;100447.94;4881793;29;20044;-65
2022/12/22 13:48:45;;;;;;;4.68;1.33;;;;;;;22.25;46.01;100446.78;4882131;29;20037;-67
2022/12/22 13:51:23;;;;;;;4.95;1.27;;;;;;;22.03;44.90;100445.38;4866522;29;20041;-67
2022/12/22 13:53:51;;;;;;;4.53;1.35;;;;;;;21.81;45.74;100444.75;4898979;29;20040;-67
2022/12/22 13:56:21;;;;;;;5.15;1.15;;;;;;;21.58;44.74;100440.81;4882534;29;20075;-67
2022/12/22 13:58:52;;;;;;;4.07;1.13;;;;;;;21.35;45.28;100436.59;4899448;29;20044;-72
2022/12/22 14:01:18;;;;;;;1.85;0.98;;;;;;;21.12;44.41;100436.16;4866550;29;20072;-66
2022/12/22 14:03:46;;;;;;;1.30;1.20;;;;;;;20.89;45.10;100431.03;4881977;29;20036;-62
2022/12/22 14:06:19;;;;;;;2.25;0.85;;;;;;;20.66;44.98;100432.44;4881670;29;20131;-64
2022/12/22 14:08:44;;;;;;;1.02;0.90;;;;;;;20.45;45.34;100418.94;4898373;29;20036;-63
2022/12/22 14:11:10;;;;;;;1.25;0.90;;;;;;;20.26;45.16;100417.84;4882204;29;20192;-64
2022/12/22 14:13:38;;;;;;;2.72;1.02;;;;;;;20.09;45.31;100422.72;4866677;29;20037;-65
2022/12/22 14:16:04;;;;;;;2.03;0.85;;;;;;;19.92;45.01;100428.69;4866815;29;20084;-67
2022/12/22 14:18:31;;;;;;;0.70;0.70;;;;;;;19.73;45.28;100427.53;4881970;29;20047;-66
2022/12/22 14:20:58;;;;;;;0.73;0.70;;;;;;;19.57;45.46;100425.09;4866327;29;20462;-63
2022/12/22 14:23:26;;;;;;;1.42;0.95;;;;;;;19.45;44.86;100416.66;4898695;29;20034;-63
2022/12/22 14:25:53;;;;;;;1.23;1.02;;;;;;;19.32;45.38;100411.03;4881934;29;20065;-63
2022/12/22 14:28:21;;;;;;;0.82;0.82;;;;;;;19.19;45.56;100405.50;4866630;29;20112;-63
2022/12/22 14:30:51;;;;;;;1.02;0.88;;;;;;;19.06;46.22;100408.97;4898745;29;20088;-65
2022/12/22 14:33:29;;;;;;;2.50;1.23;;;;;;;18.96;45.92;100411.13;4881889;29;20095;-65
2022/12/22 14:36:05;;;;;;;2.50;1.23;;;;;;;18.85;45.85;100406.22;4865916;29;20132;-65
2022/12/22 14:38:39;;;;;;;1.65;0.90;;;;;;;18.73;45.93;100407.78;4899086;29;20091;-65
2022/12/22 14:41:39;;;;;;;1.23;1.02;;;;;;;18.56;46.32;100401.72;4882037;29;20052;-64
2022/12/22 14:43:57;;;;;;;5.07;0.93;;;;;;;18.40;46.71;100396.50;4884324;29;20085;-64
2022/12/22 14:46:22;;;;;;;1.40;1.08;;;;;;;18.29;46.96;100396.97;4882069;29;20092;-65
2022/12/22 14:48:48;;;;;;;1.10;1.00;;;;;;;18.17;47.00;100394.97;4881553;29;20041;-66
2022/12/22 14:51:18;;;;;;;4.00;0.82;;;;;;;18.00;47.40;100378.91;4898260;29;20123;-64
2022/12/22 14:53:47;;;;;;;1.70;0.82;;;;;;;17.87;47.52;100378.69;4881789;29;20028;-65
2022/12/22 14:56:13;;;;;;;1.15;0.82;;;;;;;17.73;47.61;100373.28;4881910;29;20024;-65
2022/12/22 14:58:41;;;;;;;1.48;0.95;;;;;;;17.61;48.10;100359.38;4881456;29;20052;-65
2022/12/22 15:01:26;;;;;;;3.83;1.10;;;;;;;17.52;48.02;100363.16;4897932;29;20045;-64
2022/12/22 15:04:18;;;;;;;2.25;1.20;;;;;;;17.51;48.90;100361.47;4881546;29;20065;-65
2022/12/22 15:06:46;;;;;;;1.42;1.17;;;;;;;17.46;48.82;100358.47;4881733;29;20083;-65
2022/12/22 15:09:11;;;;;;;2.05;1.17;;;;;;;17.40;47.95;100353.78;4881569;29;20520;-64
2022/12/22 15:11:40;;;;;;;2.40;1.00;;;;;;;17.34;48.68;100355.38;4898531;29;20032;-65
2022/12/22 15:14:10;;;;;;;4.82;1.40;;;;;;;17.33;49.10;100347.44;4863335;29;20104;-69
2022/12/22 15:16:36;;;;;;;2.08;1.30;;;;;;;17.31;48.51;100353.03;4863440;29;20037;-67
2022/12/22 15:19:03;;;;;;;1.88;1.05;;;;;;;17.30;48.17;100356.78;4863268;29;20099;-68
2022/12/22 15:21:28;;;;;;;3.00;1.20;;;;;;;17.28;48.53;100344.47;4863078;29;20068;-69